sensor_id;sensor_type;location;lat;lon;timestamp;temperature;humidity
17033;DHT22;63208;52.178;21.016;2023-04-24T00:01:39;14.40;94.80
17033;DHT22;63208;52.178;21.016;2023-04-24T00:04:06;14.40;94.80
17033;DHT22;63208;52.178;21.016;2023-04-24T00:06:36;14.30;94.90
17033;DHT22;63208;52.178;21.016;2023-04-24T00:09:04;14.20;95.40
17033;DHT22;63208;52.178;21.016;2023-04-24T00:11:31;14.20;96.20
17033;DHT22;63208;52.178;21.016;2023-04-24T00:13:57;14.20;96.90
17033;DHT22;63208;52.178;21.016;2023-04-24T00:16:24;14.10;98.30
17033;DHT22;63208;52.178;21.016;2023-04-24T00:18:51;14.10;98.70
17033;DHT22;63208;52.178;21.016;2023-04-24T00:21:18;14.00;99.70
17033;DHT22;63208;52.178;21.016;2023-04-24T00:23:45;13.90;99.90
17033;DHT22;63208;52.178;21.016;2023-04-24T00:26:13;13.90;99.90
17033;DHT22;63208;52.178;21.016;2023-04-24T00:28:39;13.80;99.90
17033;DHT22;63208;52.178;21.016;2023-04-24T00:31:06;13.70;99.90
17033;DHT22;63208;52.178;21.016;2023-04-24T00:33:33;13.60;99.90
17033;DHT22;63208;52.178;21.016;2023-04-24T00:36:00;13.60;99.90
17033;DHT22;63208;52.178;21.016;2023-04-24T00:38:27;13.50;99.90
17033;DHT22;63208;52.178;21.016;2023-04-24T00:40:53;13.40;99.90
17033;DHT22;63208;52.178;21.016;2023-04-24T00:43:22;13.40;99.90
17033;DHT22;63208;52.178;21.016;2023-04-24T00:45:48;13.40;99.90
17033;DHT22;63208;52.178;21.016;2023-04-24T00:48:15;13.50;99.90
17033;DHT22;63208;52.178;21.016;2023-04-24T00:50:42;13.50;99.90
17033;DHT22;63208;52.178;21.016;2023-04-24T00:53:09;13.50;99.90
17033;DHT22;63208;52.178;21.016;2023-04-24T00:55:36;13.60;99.90
17033;DHT22;63208;52.178;21.016;2023-04-24T00:58:03;13.60;99.90
17033;DHT22;63208;52.178;21.016;2023-04-24T01:00:32;13.50;99.90
17033;DHT22;63208;52.178;21.016;2023-04-24T01:02:59;13.50;99.90
17033;DHT22;63208;52.178;21.016;2023-04-24T01:05:27;13.40;99.90
17033;DHT22;63208;52.178;21.016;2023-04-24T01:07:53;13.50;99.90
17033;DHT22;63208;52.178;21.016;2023-04-24T01:10:20;13.50;99.90
17033;DHT22;63208;52.178;21.016;2023-04-24T01:12:47;13.50;99.90
17033;DHT22;63208;52.178;21.016;2023-04-24T01:15:14;13.50;99.90
17033;DHT22;63208;52.178;21.016;2023-04-24T01:17:42;13.50;99.90
17033;DHT22;63208;52.178;21.016;2023-04-24T01:20:09;13.40;99.90
17033;DHT22;63208;52.178;21.016;2023-04-24T01:22:38;13.40;99.90
17033;DHT22;63208;52.178;21.016;2023-04-24T01:25:06;13.40;99.90
17033;DHT22;63208;52.178;21.016;2023-04-24T01:27:33;13.30;99.90
17033;DHT22;63208;52.178;21.016;2023-04-24T01:29:59;13.30;99.90
17033;DHT22;63208;52.178;21.016;2023-04-24T01:32:26;13.20;99.90
17033;DHT22;63208;52.178;21.016;2023-04-24T01:34:53;13.20;99.90
17033;DHT22;63208;52.178;21.016;2023-04-24T01:37:20;13.20;99.90
17033;DHT22;63208;52.178;21.016;2023-04-24T01:39:48;13.20;99.90
17033;DHT22;63208;52.178;21.016;2023-04-24T01:42:15;13.20;99.90
17033;DHT22;63208;52.178;21.016;2023-04-24T01:44:42;13.20;99.90
17033;DHT22;63208;52.178;21.016;2023-04-24T01:47:10;13.20;99.90
17033;DHT22;63208;52.178;21.016;2023-04-24T01:49:37;13.20;99.90
17033;DHT22;63208;52.178;21.016;2023-04-24T01:52:04;13.10;99.90
17033;DHT22;63208;52.178;21.016;2023-04-24T01:54:31;13.00;99.90
17033;DHT22;63208;52.178;21.016;2023-04-24T01:56:59;13.00;99.90
17033;DHT22;63208;52.178;21.016;2023-04-24T01:59:26;13.00;99.90
17033;DHT22;63208;52.178;21.016;2023-04-24T02:01:54;12.90;99.90
17033;DHT22;63208;52.178;21.016;2023-04-24T02:04:20;12.90;99.90
17033;DHT22;63208;52.178;21.016;2023-04-24T02:06:47;12.80;99.90
17033;DHT22;63208;52.178;21.016;2023-04-24T02:09:14;12.80;99.90
17033;DHT22;63208;52.178;21.016;2023-04-24T02:14:07;12.70;99.90
17033;DHT22;63208;52.178;21.016;2023-04-24T02:16:34;12.70;99.90
17033;DHT22;63208;52.178;21.016;2023-04-24T02:19:01;12.70;99.90
17033;DHT22;63208;52.178;21.016;2023-04-24T02:21:28;12.70;99.90
17033;DHT22;63208;52.178;21.016;2023-04-24T02:23:56;12.70;99.90
17033;DHT22;63208;52.178;21.016;2023-04-24T02:26:22;12.70;99.90
17033;DHT22;63208;52.178;21.016;2023-04-24T02:28:49;12.60;99.90
17033;DHT22;63208;52.178;21.016;2023-04-24T02:31:17;12.60;99.90
17033;DHT22;63208;52.178;21.016;2023-04-24T02:33:44;12.60;99.90
17033;DHT22;63208;52.178;21.016;2023-04-24T02:36:11;12.60;99.90
17033;DHT22;63208;52.178;21.016;2023-04-24T02:38:38;12.60;99.90
17033;DHT22;63208;52.178;21.016;2023-04-24T02:41:05;12.60;99.90
17033;DHT22;63208;52.178;21.016;2023-04-24T02:43:32;12.50;99.90
17033;DHT22;63208;52.178;21.016;2023-04-24T02:45:59;12.50;99.90
17033;DHT22;63208;52.178;21.016;2023-04-24T02:48:27;12.50;99.90
17033;DHT22;63208;52.178;21.016;2023-04-24T02:50:54;12.60;99.90
17033;DHT22;63208;52.178;21.016;2023-04-24T02:53:20;12.60;99.90
17033;DHT22;63208;52.178;21.016;2023-04-24T02:55:48;12.50;99.90
17033;DHT22;63208;52.178;21.016;2023-04-24T02:58:14;12.60;99.90
17033;DHT22;63208;52.178;21.016;2023-04-24T03:00:42;12.50;99.90
17033;DHT22;63208;52.178;21.016;2023-04-24T03:03:09;12.40;99.90
17033;DHT22;63208;52.178;21.016;2023-04-24T03:05:38;12.40;99.90
17033;DHT22;63208;52.178;21.016;2023-04-24T03:08:04;12.30;99.90
17033;DHT22;63208;52.178;21.016;2023-04-24T03:10:31;12.20;99.90
17033;DHT22;63208;52.178;21.016;2023-04-24T03:12:58;12.10;99.90
17033;DHT22;63208;52.178;21.016;2023-04-24T03:15:25;11.70;99.90
17033;DHT22;63208;52.178;21.016;2023-04-24T03:17:52;12.10;99.90
17033;DHT22;63208;52.178;21.016;2023-04-24T03:20:19;12.10;99.90
17033;DHT22;63208;52.178;21.016;2023-04-24T03:22:47;12.00;99.90
17033;DHT22;63208;52.178;21.016;2023-04-24T03:25:14;12.00;99.90
17033;DHT22;63208;52.178;21.016;2023-04-24T03:27:41;12.00;99.90
17033;DHT22;63208;52.178;21.016;2023-04-24T03:30:08;12.00;99.90
17033;DHT22;63208;52.178;21.016;2023-04-24T03:32:37;11.90;99.90
17033;DHT22;63208;52.178;21.016;2023-04-24T03:35:05;11.80;99.90
17033;DHT22;63208;52.178;21.016;2023-04-24T03:37:32;11.80;99.90
17033;DHT22;63208;52.178;21.016;2023-04-24T03:40:01;11.70;99.90
17033;DHT22;63208;52.178;21.016;2023-04-24T03:42:27;11.70;99.90
17033;DHT22;63208;52.178;21.016;2023-04-24T03:44:54;11.70;99.90
17033;DHT22;63208;52.178;21.016;2023-04-24T03:47:21;11.80;99.90
17033;DHT22;63208;52.178;21.016;2023-04-24T03:52:38;13.30;99.90
17033;DHT22;63208;52.178;21.016;2023-04-24T04:04:28;10.60;99.90
17033;DHT22;63208;52.178;21.016;2023-04-24T04:06:55;12.10;99.90
17033;DHT22;63208;52.178;21.016;2023-04-24T04:09:40;12.20;99.90
17033;DHT22;63208;52.178;21.016;2023-04-24T04:12:09;12.20;99.90
17033;DHT22;63208;52.178;21.016;2023-04-24T04:14:36;12.30;99.90
17033;DHT22;63208;52.178;21.016;2023-04-24T04:17:02;12.30;99.90
17033;DHT22;63208;52.178;21.016;2023-04-24T04:19:30;12.40;99.90
17033;DHT22;63208;52.178;21.016;2023-04-24T04:21:57;12.40;99.90
17033;DHT22;63208;52.178;21.016;2023-04-24T04:24:24;12.50;99.90
17033;DHT22;63208;52.178;21.016;2023-04-24T04:26:51;12.40;99.90
17033;DHT22;63208;52.178;21.016;2023-04-24T04:29:22;12.40;99.90
17033;DHT22;63208;52.178;21.016;2023-04-24T04:31:49;12.50;99.90
17033;DHT22;63208;52.178;21.016;2023-04-24T04:34:16;12.50;99.90
17033;DHT22;63208;52.178;21.016;2023-04-24T04:36:44;12.40;99.90
17033;DHT22;63208;52.178;21.016;2023-04-24T04:39:11;12.50;99.90
17033;DHT22;63208;52.178;21.016;2023-04-24T04:41:39;12.50;99.90
17033;DHT22;63208;52.178;21.016;2023-04-24T04:44:06;12.40;99.90
17033;DHT22;63208;52.178;21.016;2023-04-24T04:46:34;12.50;99.90
17033;DHT22;63208;52.178;21.016;2023-04-24T04:49:02;12.60;99.90
17033;DHT22;63208;52.178;21.016;2023-04-24T04:51:29;12.70;99.90
17033;DHT22;63208;52.178;21.016;2023-04-24T04:53:57;12.70;99.90
17033;DHT22;63208;52.178;21.016;2023-04-24T04:56:24;12.70;99.90
17033;DHT22;63208;52.178;21.016;2023-04-24T04:58:51;12.70;99.90
17033;DHT22;63208;52.178;21.016;2023-04-24T05:01:18;12.80;99.90
17033;DHT22;63208;52.178;21.016;2023-04-24T05:03:44;12.90;99.90
17033;DHT22;63208;52.178;21.016;2023-04-24T05:06:11;13.00;99.90
17033;DHT22;63208;52.178;21.016;2023-04-24T05:08:38;13.00;99.90
17033;DHT22;63208;52.178;21.016;2023-04-24T05:14:01;13.10;99.90
17033;DHT22;63208;52.178;21.016;2023-04-24T05:16:28;13.20;99.90
17033;DHT22;63208;52.178;21.016;2023-04-24T05:18:56;13.20;99.90
17033;DHT22;63208;52.178;21.016;2023-04-24T05:21:22;13.20;99.90
17033;DHT22;63208;52.178;21.016;2023-04-24T05:26:50;14.90;99.90
17033;DHT22;63208;52.178;21.016;2023-04-24T05:29:18;13.40;99.90
17033;DHT22;63208;52.178;21.016;2023-04-24T05:31:45;13.50;99.90
17033;DHT22;63208;52.178;21.016;2023-04-24T05:34:12;13.50;99.90
17033;DHT22;63208;52.178;21.016;2023-04-24T05:36:39;13.50;99.90
17033;DHT22;63208;52.178;21.016;2023-04-24T05:39:06;13.70;99.90
17033;DHT22;63208;52.178;21.016;2023-04-24T05:41:33;13.70;99.90
17033;DHT22;63208;52.178;21.016;2023-04-24T05:44:00;13.80;99.90
17033;DHT22;63208;52.178;21.016;2023-04-24T05:46:45;13.90;99.90
17033;DHT22;63208;52.178;21.016;2023-04-24T05:49:21;13.90;99.90
17033;DHT22;63208;52.178;21.016;2023-04-24T05:51:50;13.40;99.90
17033;DHT22;63208;52.178;21.016;2023-04-24T05:54:17;14.10;99.90
17033;DHT22;63208;52.178;21.016;2023-04-24T05:56:44;14.10;99.90
17033;DHT22;63208;52.178;21.016;2023-04-24T06:02:28;14.20;99.90
17033;DHT22;63208;52.178;21.016;2023-04-24T06:04:57;13.10;99.90
17033;DHT22;63208;52.178;21.016;2023-04-24T06:07:24;14.40;99.90
17033;DHT22;63208;52.178;21.016;2023-04-24T06:09:51;14.40;99.90
17033;DHT22;63208;52.178;21.016;2023-04-24T06:12:18;14.50;99.90
17033;DHT22;63208;52.178;21.016;2023-04-24T06:14:45;14.60;99.90
17033;DHT22;63208;52.178;21.016;2023-04-24T06:17:12;14.60;99.90
17033;DHT22;63208;52.178;21.016;2023-04-24T06:19:40;14.60;99.90
17033;DHT22;63208;52.178;21.016;2023-04-24T06:22:06;14.60;99.90
17033;DHT22;63208;52.178;21.016;2023-04-24T06:24:33;14.60;99.90
17033;DHT22;63208;52.178;21.016;2023-04-24T06:27:00;14.70;99.90
17033;DHT22;63208;52.178;21.016;2023-04-24T06:29:27;14.70;99.90
17033;DHT22;63208;52.178;21.016;2023-04-24T06:31:53;14.70;99.90
17033;DHT22;63208;52.178;21.016;2023-04-24T06:34:20;14.80;99.90
17033;DHT22;63208;52.178;21.016;2023-04-24T06:42:05;14.80;99.90
17033;DHT22;63208;52.178;21.016;2023-04-24T06:44:33;14.90;99.90
17033;DHT22;63208;52.178;21.016;2023-04-24T06:47:03;15.00;99.90
17033;DHT22;63208;52.178;21.016;2023-04-24T06:52:59;15.10;99.90
17033;DHT22;63208;52.178;21.016;2023-04-24T06:55:35;15.10;99.90
17033;DHT22;63208;52.178;21.016;2023-04-24T06:58:03;14.50;99.90
17033;DHT22;63208;52.178;21.016;2023-04-24T07:00:46;15.30;99.90
17033;DHT22;63208;52.178;21.016;2023-04-24T07:03:13;15.40;99.90
17033;DHT22;63208;52.178;21.016;2023-04-24T07:05:40;15.50;99.90
17033;DHT22;63208;52.178;21.016;2023-04-24T07:08:07;15.50;99.90
17033;DHT22;63208;52.178;21.016;2023-04-24T07:10:40;15.50;99.90
17033;DHT22;63208;52.178;21.016;2023-04-24T07:13:08;16.80;99.90
17033;DHT22;63208;52.178;21.016;2023-04-24T07:15:35;15.70;99.90
17033;DHT22;63208;52.178;21.016;2023-04-24T07:18:01;15.80;99.90
17033;DHT22;63208;52.178;21.016;2023-04-24T07:20:28;15.90;99.90
17033;DHT22;63208;52.178;21.016;2023-04-24T07:22:55;16.00;99.90
17033;DHT22;63208;52.178;21.016;2023-04-24T07:25:27;16.10;99.90
17033;DHT22;63208;52.178;21.016;2023-04-24T07:27:54;16.20;99.90
17033;DHT22;63208;52.178;21.016;2023-04-24T07:30:22;16.30;99.90
17033;DHT22;63208;52.178;21.016;2023-04-24T07:32:49;16.40;99.90
17033;DHT22;63208;52.178;21.016;2023-04-24T07:35:16;16.40;99.90
17033;DHT22;63208;52.178;21.016;2023-04-24T07:37:42;16.10;99.90
17033;DHT22;63208;52.178;21.016;2023-04-24T07:40:11;16.70;99.90
17033;DHT22;63208;52.178;21.016;2023-04-24T07:42:38;16.80;99.90
17033;DHT22;63208;52.178;21.016;2023-04-24T07:45:05;16.90;99.90
17033;DHT22;63208;52.178;21.016;2023-04-24T07:47:33;17.00;99.90
17033;DHT22;63208;52.178;21.016;2023-04-24T07:50:02;17.10;99.90
17033;DHT22;63208;52.178;21.016;2023-04-24T07:52:28;17.20;99.90
17033;DHT22;63208;52.178;21.016;2023-04-24T07:54:55;17.20;99.90
17033;DHT22;63208;52.178;21.016;2023-04-24T07:57:23;17.30;99.90
17033;DHT22;63208;52.178;21.016;2023-04-24T07:59:50;17.40;99.90
17033;DHT22;63208;52.178;21.016;2023-04-24T08:02:17;17.50;99.90
17033;DHT22;63208;52.178;21.016;2023-04-24T08:04:45;17.60;99.90
17033;DHT22;63208;52.178;21.016;2023-04-24T08:07:12;17.70;99.90
17033;DHT22;63208;52.178;21.016;2023-04-24T08:09:39;17.80;99.90
17033;DHT22;63208;52.178;21.016;2023-04-24T08:12:06;17.90;99.90
17033;DHT22;63208;52.178;21.016;2023-04-24T08:14:33;18.00;99.90
17033;DHT22;63208;52.178;21.016;2023-04-24T08:17:00;18.10;99.90
17033;DHT22;63208;52.178;21.016;2023-04-24T08:19:27;18.20;99.90
17033;DHT22;63208;52.178;21.016;2023-04-24T08:21:56;16.80;99.90
17033;DHT22;63208;52.178;21.016;2023-04-24T08:24:23;18.30;99.90
17033;DHT22;63208;52.178;21.016;2023-04-24T08:26:50;18.40;99.90
17033;DHT22;63208;52.178;21.016;2023-04-24T08:29:16;18.60;99.90
17033;DHT22;63208;52.178;21.016;2023-04-24T08:31:43;18.70;99.90
17033;DHT22;63208;52.178;21.016;2023-04-24T08:34:10;18.70;99.90
17033;DHT22;63208;52.178;21.016;2023-04-24T08:36:37;18.80;99.90
17033;DHT22;63208;52.178;21.016;2023-04-24T08:39:07;18.80;99.90
17033;DHT22;63208;52.178;21.016;2023-04-24T08:41:34;18.80;99.90
17033;DHT22;63208;52.178;21.016;2023-04-24T08:44:01;18.80;99.90
17033;DHT22;63208;52.178;21.016;2023-04-24T08:46:28;18.90;99.90
17033;DHT22;63208;52.178;21.016;2023-04-24T08:48:56;19.10;99.90
17033;DHT22;63208;52.178;21.016;2023-04-24T08:51:22;20.40;99.90
17033;DHT22;63208;52.178;21.016;2023-04-24T08:53:51;19.40;99.90
17033;DHT22;63208;52.178;21.016;2023-04-24T08:56:20;19.40;99.90
17033;DHT22;63208;52.178;21.016;2023-04-24T08:58:48;19.30;99.90
17033;DHT22;63208;52.178;21.016;2023-04-24T09:25:19;19.90;99.90
17033;DHT22;63208;52.178;21.016;2023-04-24T09:27:46;19.90;99.90
17033;DHT22;63208;52.178;21.016;2023-04-24T09:30:32;18.50;99.90
17033;DHT22;63208;52.178;21.016;2023-04-24T09:33:12;19.50;99.90
17033;DHT22;63208;52.178;21.016;2023-04-24T09:35:40;20.40;99.90
17033;DHT22;63208;52.178;21.016;2023-04-24T09:38:07;20.50;99.90
17033;DHT22;63208;52.178;21.016;2023-04-24T09:40:35;20.50;99.90
17033;DHT22;63208;52.178;21.016;2023-04-24T09:45:50;20.40;99.90
17033;DHT22;63208;52.178;21.016;2023-04-24T09:48:29;20.40;99.90
17033;DHT22;63208;52.178;21.016;2023-04-24T09:50:56;20.50;99.90
17033;DHT22;63208;52.178;21.016;2023-04-24T09:53:23;20.40;99.90
17033;DHT22;63208;52.178;21.016;2023-04-24T09:55:52;20.40;99.90
17033;DHT22;63208;52.178;21.016;2023-04-24T09:58:21;20.50;99.90
17033;DHT22;63208;52.178;21.016;2023-04-24T10:00:52;20.50;99.90
17033;DHT22;63208;52.178;21.016;2023-04-24T10:03:19;20.50;99.90
17033;DHT22;63208;52.178;21.016;2023-04-24T10:05:46;20.30;99.90
17033;DHT22;63208;52.178;21.016;2023-04-24T10:08:13;20.30;99.90
17033;DHT22;63208;52.178;21.016;2023-04-24T10:10:40;20.20;99.90
17033;DHT22;63208;52.178;21.016;2023-04-24T10:13:09;20.20;99.90
17033;DHT22;63208;52.178;21.016;2023-04-24T10:15:36;20.20;99.90
17033;DHT22;63208;52.178;21.016;2023-04-24T10:18:04;20.40;99.90
17033;DHT22;63208;52.178;21.016;2023-04-24T10:20:31;20.50;99.90
17033;DHT22;63208;52.178;21.016;2023-04-24T10:22:59;20.70;99.90
17033;DHT22;63208;52.178;21.016;2023-04-24T10:25:26;20.80;99.90
17033;DHT22;63208;52.178;21.016;2023-04-24T10:27:54;20.70;99.90
17033;DHT22;63208;52.178;21.016;2023-04-24T10:30:24;20.90;99.90
17033;DHT22;63208;52.178;21.016;2023-04-24T10:32:51;21.10;99.90
17033;DHT22;63208;52.178;21.016;2023-04-24T10:35:26;21.20;99.90
17033;DHT22;63208;52.178;21.016;2023-04-24T10:37:57;21.30;99.90
17033;DHT22;63208;52.178;21.016;2023-04-24T10:40:25;21.50;98.80
17033;DHT22;63208;52.178;21.016;2023-04-24T10:42:53;21.70;96.80
17033;DHT22;63208;52.178;21.016;2023-04-24T10:45:20;21.80;98.30
17033;DHT22;63208;52.178;21.016;2023-04-24T10:50:43;20.80;94.10
17033;DHT22;63208;52.178;21.016;2023-04-24T10:53:14;21.80;97.20
17033;DHT22;63208;52.178;21.016;2023-04-24T10:58:41;21.00;97.00
17033;DHT22;63208;52.178;21.016;2023-04-24T11:01:22;22.00;95.80
17033;DHT22;63208;52.178;21.016;2023-04-24T11:03:50;22.10;93.80
17033;DHT22;63208;52.178;21.016;2023-04-24T11:06:18;22.10;95.60
17033;DHT22;63208;52.178;21.016;2023-04-24T11:08:58;22.20;95.20
17033;DHT22;63208;52.178;21.016;2023-04-24T11:11:25;22.10;94.00
17033;DHT22;63208;52.178;21.016;2023-04-24T11:14:01;22.20;92.90
17033;DHT22;63208;52.178;21.016;2023-04-24T11:16:29;23.00;93.20
17033;DHT22;63208;52.178;21.016;2023-04-24T11:19:01;22.40;91.30
17033;DHT22;63208;52.178;21.016;2023-04-24T11:21:32;22.50;89.80
17033;DHT22;63208;52.178;21.016;2023-04-24T11:24:48;22.70;89.20
17033;DHT22;63208;52.178;21.016;2023-04-24T11:27:15;22.70;89.50
17033;DHT22;63208;52.178;21.016;2023-04-24T11:29:42;22.80;84.40
17033;DHT22;63208;52.178;21.016;2023-04-24T11:35:14;22.20;90.10
17033;DHT22;63208;52.178;21.016;2023-04-24T11:37:43;23.20;89.70
17033;DHT22;63208;52.178;21.016;2023-04-24T11:40:11;23.20;88.20
17033;DHT22;63208;52.178;21.016;2023-04-24T11:42:39;23.20;87.20
17033;DHT22;63208;52.178;21.016;2023-04-24T11:45:09;23.30;84.70
17033;DHT22;63208;52.178;21.016;2023-04-24T11:47:36;23.50;86.90
17033;DHT22;63208;52.178;21.016;2023-04-24T11:50:04;23.60;85.70
17033;DHT22;63208;52.178;21.016;2023-04-24T11:52:31;23.70;82.30
17033;DHT22;63208;52.178;21.016;2023-04-24T11:55:01;23.80;83.40
17033;DHT22;63208;52.178;21.016;2023-04-24T11:57:29;23.80;81.10
17033;DHT22;63208;52.178;21.016;2023-04-24T11:59:59;23.70;81.60
17033;DHT22;63208;52.178;21.016;2023-04-24T12:02:26;23.40;81.60
17033;DHT22;63208;52.178;21.016;2023-04-24T12:04:53;23.30;78.60
17033;DHT22;63208;52.178;21.016;2023-04-24T12:07:20;23.30;78.50
17033;DHT22;63208;52.178;21.016;2023-04-24T12:09:47;23.50;79.50
17033;DHT22;63208;52.178;21.016;2023-04-24T12:12:17;23.70;82.60
17033;DHT22;63208;52.178;21.016;2023-04-24T12:14:47;24.00;79.20
17033;DHT22;63208;52.178;21.016;2023-04-24T12:17:15;24.00;77.60
17033;DHT22;63208;52.178;21.016;2023-04-24T12:19:45;24.20;81.50
17033;DHT22;63208;52.178;21.016;2023-04-24T12:22:12;24.10;69.40
17033;DHT22;63208;52.178;21.016;2023-04-24T12:27:22;24.50;73.60
17033;DHT22;63208;52.178;21.016;2023-04-24T12:29:52;24.50;69.80
17033;DHT22;63208;52.178;21.016;2023-04-24T12:32:19;24.30;67.70
17033;DHT22;63208;52.178;21.016;2023-04-24T12:34:46;24.30;65.20
17033;DHT22;63208;52.178;21.016;2023-04-24T12:37:12;24.50;63.60
17033;DHT22;63208;52.178;21.016;2023-04-24T12:39:39;24.50;64.50
17033;DHT22;63208;52.178;21.016;2023-04-24T12:42:11;23.80;64.00
17033;DHT22;63208;52.178;21.016;2023-04-24T12:44:39;22.90;71.20
17033;DHT22;63208;52.178;21.016;2023-04-24T12:47:06;21.60;76.30
17033;DHT22;63208;52.178;21.016;2023-04-24T12:52:08;20.70;80.90
17033;DHT22;63208;52.178;21.016;2023-04-24T12:54:34;20.40;82.90
17033;DHT22;63208;52.178;21.016;2023-04-24T13:03:09;20.80;79.80
17033;DHT22;63208;52.178;21.016;2023-04-24T13:05:36;22.60;80.50
17033;DHT22;63208;52.178;21.016;2023-04-24T13:08:02;22.40;79.50
17033;DHT22;63208;52.178;21.016;2023-04-24T13:13:32;22.70;78.40
17033;DHT22;63208;52.178;21.016;2023-04-24T13:15:59;23.40;76.70
17033;DHT22;63208;52.178;21.016;2023-04-24T13:18:28;23.50;75.80
17033;DHT22;63208;52.178;21.016;2023-04-24T13:20:54;23.40;73.20
17033;DHT22;63208;52.178;21.016;2023-04-24T13:23:21;23.10;74.10
17033;DHT22;63208;52.178;21.016;2023-04-24T13:25:49;23.00;75.00
17033;DHT22;63208;52.178;21.016;2023-04-24T13:28:15;23.10;75.50
17033;DHT22;63208;52.178;21.016;2023-04-24T13:30:42;23.10;73.60
17033;DHT22;63208;52.178;21.016;2023-04-24T13:39:29;21.20;73.60
17033;DHT22;63208;52.178;21.016;2023-04-24T13:48:17;23.40;71.80
17033;DHT22;63208;52.178;21.016;2023-04-24T13:50:50;24.70;69.90
17033;DHT22;63208;52.178;21.016;2023-04-24T13:53:18;24.80;68.00
17033;DHT22;63208;52.178;21.016;2023-04-24T13:55:46;24.30;67.40
17033;DHT22;63208;52.178;21.016;2023-04-24T13:58:13;24.00;67.60
17033;DHT22;63208;52.178;21.016;2023-04-24T14:00:40;23.40;67.50
17033;DHT22;63208;52.178;21.016;2023-04-24T14:03:09;22.30;68.90
17033;DHT22;63208;52.178;21.016;2023-04-24T14:05:36;22.40;69.10
17033;DHT22;63208;52.178;21.016;2023-04-24T14:08:03;22.20;69.40
17033;DHT22;63208;52.178;21.016;2023-04-24T14:10:44;21.90;70.70
17033;DHT22;63208;52.178;21.016;2023-04-24T14:13:12;21.60;71.10
17033;DHT22;63208;52.178;21.016;2023-04-24T14:15:39;21.40;72.30
17033;DHT22;63208;52.178;21.016;2023-04-24T14:18:06;21.50;73.30
17033;DHT22;63208;52.178;21.016;2023-04-24T14:20:32;21.60;75.00
17033;DHT22;63208;52.178;21.016;2023-04-24T14:22:59;21.70;74.80
17033;DHT22;63208;52.178;21.016;2023-04-24T14:25:26;21.90;74.60
17033;DHT22;63208;52.178;21.016;2023-04-24T14:27:53;22.00;72.30
17033;DHT22;63208;52.178;21.016;2023-04-24T14:30:21;22.10;70.70
17033;DHT22;63208;52.178;21.016;2023-04-24T14:32:47;22.10;67.70
17033;DHT22;63208;52.178;21.016;2023-04-24T14:35:16;22.10;65.40
17033;DHT22;63208;52.178;21.016;2023-04-24T14:37:43;22.00;66.10
17033;DHT22;63208;52.178;21.016;2023-04-24T14:40:10;22.00;66.90
17033;DHT22;63208;52.178;21.016;2023-04-24T14:51:48;20.70;64.30
17033;DHT22;63208;52.178;21.016;2023-04-24T14:54:15;21.80;65.80
17033;DHT22;63208;52.178;21.016;2023-04-24T14:56:42;21.70;65.90
17033;DHT22;63208;52.178;21.016;2023-04-24T14:59:09;21.70;68.20
17033;DHT22;63208;52.178;21.016;2023-04-24T15:01:36;21.70;71.30
17033;DHT22;63208;52.178;21.016;2023-04-24T15:04:03;21.70;74.50
17033;DHT22;63208;52.178;21.016;2023-04-24T15:09:16;21.80;72.10
17033;DHT22;63208;52.178;21.016;2023-04-24T15:11:45;21.90;71.90
17033;DHT22;63208;52.178;21.016;2023-04-24T15:14:11;21.90;68.20
17033;DHT22;63208;52.178;21.016;2023-04-24T15:16:38;22.20;66.90
17033;DHT22;63208;52.178;21.016;2023-04-24T15:19:05;22.60;65.10
17033;DHT22;63208;52.178;21.016;2023-04-24T15:21:32;22.90;66.80
17033;DHT22;63208;52.178;21.016;2023-04-24T15:23:58;22.80;62.50
17033;DHT22;63208;52.178;21.016;2023-04-24T15:29:36;22.80;64.50
17033;DHT22;63208;52.178;21.016;2023-04-24T15:32:02;22.30;65.40
17033;DHT22;63208;52.178;21.016;2023-04-24T15:34:29;22.30;65.00
17033;DHT22;63208;52.178;21.016;2023-04-24T15:36:57;22.50;65.90
17033;DHT22;63208;52.178;21.016;2023-04-24T15:39:24;22.60;66.60
17033;DHT22;63208;52.178;21.016;2023-04-24T15:41:51;22.50;66.80
17033;DHT22;63208;52.178;21.016;2023-04-24T15:44:18;22.40;65.20
17033;DHT22;63208;52.178;21.016;2023-04-24T15:46:46;22.30;67.30
17033;DHT22;63208;52.178;21.016;2023-04-24T15:49:13;22.30;66.80
17033;DHT22;63208;52.178;21.016;2023-04-24T15:51:40;22.40;64.30
17033;DHT22;63208;52.178;21.016;2023-04-24T15:54:06;22.40;63.80
17033;DHT22;63208;52.178;21.016;2023-04-24T15:56:33;22.60;65.30
17033;DHT22;63208;52.178;21.016;2023-04-24T15:59:03;22.70;67.70
17033;DHT22;63208;52.178;21.016;2023-04-24T16:01:29;22.50;66.70
17033;DHT22;63208;52.178;21.016;2023-04-24T16:06:50;22.50;70.20
17033;DHT22;63208;52.178;21.016;2023-04-24T16:09:17;22.20;70.60
17033;DHT22;63208;52.178;21.016;2023-04-24T16:11:44;22.20;71.40
17033;DHT22;63208;52.178;21.016;2023-04-24T16:14:10;22.30;71.40
17033;DHT22;63208;52.178;21.016;2023-04-24T16:16:37;22.30;71.20
17033;DHT22;63208;52.178;21.016;2023-04-24T16:19:04;22.40;70.00
17033;DHT22;63208;52.178;21.016;2023-04-24T16:21:45;22.80;69.10
17033;DHT22;63208;52.178;21.016;2023-04-24T16:24:13;22.80;70.60
17033;DHT22;63208;52.178;21.016;2023-04-24T16:26:39;24.70;72.20
17033;DHT22;63208;52.178;21.016;2023-04-24T16:29:06;22.80;70.30
17033;DHT22;63208;52.178;21.016;2023-04-24T16:31:33;22.60;69.60
17033;DHT22;63208;52.178;21.016;2023-04-24T16:34:00;22.60;70.10
17033;DHT22;63208;52.178;21.016;2023-04-24T16:36:26;22.70;69.00
17033;DHT22;63208;52.178;21.016;2023-04-24T16:38:56;22.70;69.70
17033;DHT22;63208;52.178;21.016;2023-04-24T16:41:24;22.70;70.90
17033;DHT22;63208;52.178;21.016;2023-04-24T16:43:50;22.60;70.50
17033;DHT22;63208;52.178;21.016;2023-04-24T16:55:12;22.10;71.50
17033;DHT22;63208;52.178;21.016;2023-04-24T16:57:41;22.00;70.00
17033;DHT22;63208;52.178;21.016;2023-04-24T17:00:08;21.80;71.70
17033;DHT22;63208;52.178;21.016;2023-04-24T17:02:35;21.50;73.80
17033;DHT22;63208;52.178;21.016;2023-04-24T17:05:02;21.30;73.90
17033;DHT22;63208;52.178;21.016;2023-04-24T17:07:29;21.10;74.70
17033;DHT22;63208;52.178;21.016;2023-04-24T17:09:56;20.90;74.60
17033;DHT22;63208;52.178;21.016;2023-04-24T17:15:42;22.20;75.90
17033;DHT22;63208;52.178;21.016;2023-04-24T17:18:09;19.50;74.40
17033;DHT22;63208;52.178;21.016;2023-04-24T17:20:36;20.10;77.40
17033;DHT22;63208;52.178;21.016;2023-04-24T17:23:10;19.60;76.10
17033;DHT22;63208;52.178;21.016;2023-04-24T17:25:37;21.50;76.90